Time;durP1;ratioP1;P1;durP2;ratioP2;P2;SDS_P1;SDS_P2;PMS_P1;PMS_P2;Temp;Humidity;BMP_temperature;BMP_pressure;BME280_temperature;BME280_humidity;BME280_pressure;Samples;Min_cycle;Max_cycle;Signal;HPM_P1;HPM_P2
2021/10/17 00:02:24;;;;;;;5.47;1.08;;;;;;;10.13;84.77;100922.53;4804773;29;20045;-82
2021/10/17 00:04:50;;;;;;;7.10;1.10;;;;;;;9.03;82.76;100746.44;4789747;29;20132;-81
2021/10/17 00:07:15;;;;;;;7.70;1.02;;;;;;;9.80;83.80;100865.78;4824927;29;20035;-82
2021/10/17 00:09:42;;;;;;;8.88;0.85;;;;;;;9.06;82.61;100734.50;4825813;29;20046;-82
2021/10/17 00:12:10;;;;;;;5.15;1.08;;;;;;;8.96;82.60;100737.47;4795205;29;20027;-82
2021/10/17 00:14:35;;;;;;;6.80;1.05;;;;;;;10.25;82.47;100942.50;4794149;30;20054;-82
2021/10/17 00:17:02;;;;;;;7.13;0.70;;;;;;;8.65;83.12;100701.03;4790448;30;20027;-81
2021/10/17 00:19:30;;;;;;;3.90;0.70;;;;;;;10.22;83.54;100960.88;4805612;30;20061;-82
2021/10/17 00:21:55;;;;;;;6.18;0.95;;;;;;;9.02;84.01;100762.75;4797714;29;20038;-81
2021/10/17 00:24:21;;;;;;;6.03;1.17;;;;;;;9.86;83.75;100916.91;4823597;29;20080;-82
2021/10/17 00:26:47;;;;;;;7.82;1.20;;;;;;;8.88;83.73;100745.66;4818823;29;20031;-82
2021/10/17 00:29:12;;;;;;;6.85;0.90;;;;;;;8.73;84.03;100734.97;4816630;29;20069;-81
2021/10/17 00:31:38;;;;;;;8.48;1.20;;;;;;;8.79;84.58;100738.75;4802097;29;20078;-82
2021/10/17 00:34:04;;;;;;;7.97;1.20;;;;;;;10.24;85.22;100950.78;4804692;30;20094;-82
2021/10/17 00:36:33;;;;;;;6.32;0.93;;;;;;;10.08;85.45;100924.97;4802915;30;20031;-82
2021/10/17 00:38:58;;;;;;;4.53;0.95;;;;;;;9.18;85.05;100757.97;4801066;29;20038;-82
2021/10/17 00:41:24;;;;;;;5.80;1.10;;;;;;;9.27;84.76;100795.41;4787676;29;20117;-81
2021/10/17 00:43:50;;;;;;;7.20;1.08;;;;;;;9.37;84.57;100815.59;4816914;29;20043;-82
2021/10/17 00:46:21;;;;;;;6.30;1.20;;;;;;;9.05;85.05;100765.88;4804905;29;20075;-82
2021/10/17 00:48:46;;;;;;;8.45;1.38;;;;;;;10.24;85.91;100962.38;4793953;29;20035;-81
2021/10/17 00:51:15;;;;;;;8.57;1.70;;;;;;;9.53;85.36;100835.13;4802281;29;20035;-81
2021/10/17 00:53:43;;;;;;;8.18;1.00;;;;;;;9.46;85.00;100829.69;4790288;30;20510;-80
2021/10/17 00:56:08;;;;;;;4.32;0.82;;;;;;;9.61;85.34;100846.59;4782543;30;20030;-81
2021/10/17 00:58:34;;;;;;;5.82;0.80;;;;;;;9.65;84.69;100876.59;4784730;30;20035;-81
2021/10/17 01:01:00;;;;;;;9.77;1.10;;;;;;;8.85;84.89;100757.59;4773538;30;20031;-81
2021/10/17 01:03:26;;;;;;;6.97;0.90;;;;;;;8.70;84.74;100712.03;4804467;30;20031;-82
2021/10/17 01:05:53;;;;;;;12.40;1.08;;;;;;;9.14;84.62;100794.28;4786022;29;20066;-81
2021/10/17 01:08:21;;;;;;;3.17;0.52;;;;;;;9.34;84.83;100818.66;4821852;29;20040;-82
2021/10/17 01:10:47;;;;;;;4.57;1.10;;;;;;;10.27;85.28;100964.69;4811867;29;20057;-82
2021/10/17 01:13:17;;;;;;;11.40;1.02;;;;;;;9.30;85.25;100824.56;4787019;30;20106;-82
2021/10/17 01:15:44;;;;;;;7.55;0.93;;;;;;;10.02;84.67;100931.13;4800622;29;20478;-82
2021/10/17 01:18:10;;;;;;;8.73;1.13;;;;;;;9.03;84.66;100756.34;4800564;29;20119;-82
2021/10/17 01:20:36;;;;;;;11.45;1.10;;;;;;;9.57;84.63;100857.91;4786967;29;20027;-81
2021/10/17 01:23:02;;;;;;;7.32;1.10;;;;;;;8.94;85.20;100758.34;4784587;30;20023;-81
2021/10/17 01:25:27;;;;;;;9.02;1.33;;;;;;;9.39;86.31;100823.44;4804278;29;20085;-82
2021/10/17 01:27:53;;;;;;;7.20;1.20;;;;;;;8.77;86.20;100738.09;4805240;30;20035;-81
2021/10/17 01:30:19;;;;;;;4.57;0.70;;;;;;;9.06;85.19;100794.38;4785251;30;20035;-82
2021/10/17 01:32:45;;;;;;;3.00;0.70;;;;;;;10.20;84.63;100966.47;4799300;29;20046;-82
2021/10/17 01:35:11;;;;;;;5.47;0.98;;;;;;;10.23;83.96;100960.72;4786163;30;20032;-81
2021/10/17 01:37:36;;;;;;;6.07;0.90;;;;;;;9.60;83.67;100879.00;4801377;30;20133;-82
2021/10/17 01:40:04;;;;;;;5.88;1.05;;;;;;;8.58;82.76;100720.75;4785340;30;20427;-80
2021/10/17 01:42:29;;;;;;;10.77;1.33;;;;;;;9.70;83.21;100886.75;4776059;30;20028;-80
2021/10/17 01:44:56;;;;;;;7.47;1.20;;;;;;;8.91;83.54;100769.44;4798859;29;20038;-81
2021/10/17 01:47:22;;;;;;;8.20;1.00;;;;;;;10.16;83.14;100984.00;4783672;30;20046;-81
2021/10/17 01:49:48;;;;;;;5.20;1.23;;;;;;;8.67;83.28;100728.50;4802009;30;20031;-81
2021/10/17 01:52:14;;;;;;;7.40;1.10;;;;;;;8.78;82.65;100739.78;4788082;30;20073;-81
2021/10/17 01:54:39;;;;;;;5.45;0.80;;;;;;;8.83;81.63;100742.72;4787505;30;20034;-82
2021/10/17 01:57:05;;;;;;;4.88;0.93;;;;;;;9.24;81.34;100793.09;4807374;29;20049;-82
2021/10/17 01:59:31;;;;;;;3.38;0.60;;;;;;;9.64;80.25;100856.13;4803685;29;20035;-82
2021/10/17 02:01:56;;;;;;;8.35;1.40;;;;;;;10.16;79.96;100958.97;4792187;30;20047;-81
2021/10/17 02:04:22;;;;;;;4.90;0.88;;;;;;;8.79;79.60;100719.97;4784647;30;20031;-80
2021/10/17 02:06:47;;;;;;;6.80;0.82;;;;;;;9.47;80.00;100822.47;4782203;30;20034;-81
2021/10/17 02:09:13;;;;;;;5.18;0.80;;;;;;;9.23;80.77;100796.81;4802937;29;20027;-81
2021/10/17 02:11:39;;;;;;;7.57;1.10;;;;;;;9.95;81.20;100895.28;4786512;30;20130;-82
2021/10/17 02:14:04;;;;;;;9.70;0.90;;;;;;;9.11;81.66;100762.44;4789073;30;20118;-81
2021/10/17 02:16:30;;;;;;;5.65;0.80;;;;;;;9.68;81.94;100854.72;4786428;30;20031;-81
2021/10/17 02:18:55;;;;;;;6.38;0.80;;;;;;;9.37;81.73;100812.91;4788259;30;20038;-81
2021/10/17 02:21:22;;;;;;;4.55;0.70;;;;;;;10.11;81.72;100928.13;4803989;29;20028;-81
2021/10/17 02:23:48;;;;;;;7.20;0.82;;;;;;;8.87;81.62;100739.47;4788661;30;20058;-82
2021/10/17 02:26:14;;;;;;;6.47;0.60;;;;;;;10.22;81.54;100929.44;4788052;30;20043;-81
2021/10/17 02:28:41;;;;;;;4.70;0.82;;;;;;;8.73;82.17;100700.09;4804493;29;20103;-81
2021/10/17 02:31:06;;;;;;;6.60;1.13;;;;;;;8.85;82.88;100732.63;4767554;30;20074;-82
2021/10/17 02:33:33;;;;;;;5.22;1.10;;;;;;;9.72;83.60;100855.16;4781755;30;20032;-81
2021/10/17 02:36:00;;;;;;;6.30;0.98;;;;;;;10.26;82.41;100954.94;4814304;30;20031;-82
2021/10/17 02:38:26;;;;;;;7.80;0.93;;;;;;;9.55;81.78;100830.41;4793948;30;20429;-82
2021/10/17 02:40:52;;;;;;;4.93;1.02;;;;;;;9.03;82.62;100767.09;4775877;30;20055;-81
2021/10/17 02:43:17;;;;;;;5.45;1.13;;;;;;;9.00;82.54;100767.47;4802446;29;20023;-81
2021/10/17 02:45:43;;;;;;;7.93;0.82;;;;;;;9.52;82.94;100857.66;4803842;29;20095;-81
2021/10/17 02:48:08;;;;;;;3.75;0.65;;;;;;;8.87;83.91;100769.00;4768938;30;20043;-82
2021/10/17 02:50:34;;;;;;;4.75;0.75;;;;;;;9.41;83.56;100838.34;4777964;30;20035;-81
2021/10/17 02:53:00;;;;;;;7.35;1.20;;;;;;;9.62;83.63;100890.41;4787529;30;20019;-81
2021/10/17 02:55:38;;;;;;;8.05;1.17;;;;;;;9.39;84.30;100869.91;4785598;29;20042;-81
2021/10/17 02:58:04;;;;;;;10.15;1.00;;;;;;;8.78;84.99;100762.06;4772297;30;20036;-82
2021/10/17 03:00:29;;;;;;;5.45;0.93;;;;;;;8.98;84.05;100799.03;4771018;30;20039;-81
2021/10/17 03:02:55;;;;;;;3.78;0.93;;;;;;;8.30;83.10;100697.28;4805913;29;20485;-81
2021/10/17 03:05:21;;;;;;;3.55;0.80;;;;;;;9.82;83.96;100955.94;4806665;29;20031;-81
2021/10/17 03:07:46;;;;;;;7.80;1.00;;;;;;;8.89;84.17;100780.34;4800137;29;20038;-82
2021/10/17 03:10:12;;;;;;;8.05;1.15;;;;;;;8.53;83.97;100741.94;4817629;29;20041;-81
2021/10/17 03:12:38;;;;;;;7.28;1.45;;;;;;;8.83;83.82;100781.09;4815034;29;20045;-81
2021/10/17 03:15:06;;;;;;;5.55;1.10;;;;;;;8.97;84.36;100821.50;4788029;29;20103;-81
2021/10/17 03:17:32;;;;;;;7.53;0.80;;;;;;;9.01;84.03;100810.22;4803148;30;20110;-81
2021/10/17 03:19:58;;;;;;;6.18;1.05;;;;;;;9.31;83.65;100845.88;4784196;29;20031;-82
2021/10/17 03:22:24;;;;;;;6.28;1.10;;;;;;;9.72;83.53;100933.91;4785551;30;20126;-81
2021/10/17 03:24:49;;;;;;;4.38;0.77;;;;;;;8.44;82.75;100723.28;4776545;30;20513;-81
2021/10/17 03:27:15;;;;;;;3.45;0.90;;;;;;;9.39;82.85;100871.78;4803985;29;20035;-82
2021/10/17 03:29:40;;;;;;;7.03;0.98;;;;;;;9.34;83.45;100877.72;4804385;29;20027;-82
2021/10/17 03:32:07;;;;;;;5.78;0.90;;;;;;;9.15;84.16;100832.69;4804819;29;20043;-81
2021/10/17 03:34:32;;;;;;;7.60;1.13;;;;;;;9.84;84.48;100967.34;4800569;29;20035;-82
2021/10/17 03:36:58;;;;;;;8.75;1.10;;;;;;;8.94;83.68;100810.16;4787134;29;20035;-82
2021/10/17 03:39:23;;;;;;;9.15;1.10;;;;;;;8.16;83.30;100708.84;4786090;30;20039;-82
2021/10/17 03:41:49;;;;;;;7.50;1.00;;;;;;;9.64;83.59;100945.63;4800792;29;20038;-80
2021/10/17 03:44:16;;;;;;;5.28;0.85;;;;;;;9.12;83.44;100868.78;4800153;29;20099;-81
2021/10/17 03:46:43;;;;;;;4.03;0.70;;;;;;;8.31;84.85;100735.63;4801029;30;20059;-80
2021/10/17 03:49:08;;;;;;;4.68;0.95;;;;;;;9.01;84.26;100861.22;4782324;30;20031;-82
2021/10/17 03:51:34;;;;;;;5.20;1.05;;;;;;;8.72;83.74;100816.47;4785129;30;20363;-81
2021/10/17 03:54:00;;;;;;;5.38;0.70;;;;;;;8.16;82.97;100741.00;4786501;30;20035;-81
2021/10/17 03:56:25;;;;;;;3.72;0.70;;;;;;;8.62;82.64;100806.03;4788585;30;20038;-82
2021/10/17 03:58:51;;;;;;;5.82;0.80;;;;;;;8.05;83.35;100728.91;4802517;30;20027;-81
2021/10/17 04:01:16;;;;;;;5.85;0.77;;;;;;;8.21;83.30;100758.22;4785720;30;20447;-81
2021/10/17 04:03:42;;;;;;;6.13;0.90;;;;;;;8.21;83.89;100768.94;4786322;30;20069;-82
2021/10/17 04:06:08;;;;;;;8.55;0.90;;;;;;;8.89;84.66;100874.28;4810480;29;20042;-82
2021/10/17 04:08:34;;;;;;;8.60;1.33;;;;;;;8.10;85.29;100747.09;4806117;29;20034;-81
2021/10/17 04:10:59;;;;;;;6.07;1.80;;;;;;;8.57;83.92;100807.59;4809819;29;20031;-81
2021/10/17 04:13:25;;;;;;;3.58;0.80;;;;;;;9.44;81.72;100947.25;4799201;29;20114;-79
2021/10/17 04:16:01;;;;;;;3.20;0.70;;;;;;;9.44;80.92;100949.94;4786388;29;20042;-82
2021/10/17 04:18:26;;;;;;;3.70;0.77;;;;;;;9.51;79.63;100933.91;4800528;29;20039;-82
2021/10/17 04:20:52;;;;;;;6.65;1.02;;;;;;;9.04;79.65;100874.28;4798900;29;20024;-80
2021/10/17 04:23:18;;;;;;;4.75;0.82;;;;;;;8.06;78.79;100708.31;4785552;30;20066;-80
2021/10/17 04:25:43;;;;;;;6.00;0.85;;;;;;;8.20;78.35;100718.19;4803605;29;20034;-81
2021/10/17 04:28:09;;;;;;;3.58;0.63;;;;;;;8.83;77.96;100837.44;4818949;29;20095;-81
2021/10/17 04:30:35;;;;;;;6.25;0.70;;;;;;;8.45;77.48;100783.94;4813348;29;20027;-81
2021/10/17 04:33:01;;;;;;;3.25;0.60;;;;;;;8.12;76.30;100708.38;4767060;30;20111;-81
2021/10/17 04:35:28;;;;;;;5.63;0.80;;;;;;;9.56;75.93;100944.91;4751637;30;20035;-81
2021/10/17 04:37:54;;;;;;;5.88;1.20;;;;;;;8.75;77.03;100829.50;4768215;30;20101;-81
2021/10/17 04:40:21;;;;;;;3.65;0.60;;;;;;;9.49;76.97;100966.31;4792197;29;20054;-81
2021/10/17 04:42:47;;;;;;;2.38;0.50;;;;;;;8.14;75.66;100751.06;4778024;30;20039;-81
2021/10/17 04:45:12;;;;;;;2.38;0.65;;;;;;;8.77;75.63;100865.00;4766365;30;20556;-80
2021/10/17 04:47:38;;;;;;;2.15;0.50;;;;;;;8.57;75.39;100807.59;4783328;29;20033;-81
2021/10/17 04:50:04;;;;;;;3.13;0.60;;;;;;;7.88;74.75;100711.31;4803181;29;20476;-81
2021/10/17 04:52:29;;;;;;;1.88;0.50;;;;;;;8.29;74.16;100767.16;4814930;29;20071;-80
2021/10/17 04:54:55;;;;;;;2.97;0.50;;;;;;;8.70;74.21;100834.59;4801330;29;20125;-82
2021/10/17 04:57:20;;;;;;;4.07;0.57;;;;;;;9.17;74.87;100911.16;4797054;29;20054;-81
2021/10/17 04:59:46;;;;;;;3.05;0.65;;;;;;;8.33;74.99;100780.00;4806450;29;20043;-81
2021/10/17 05:02:11;;;;;;;5.63;0.82;;;;;;;8.62;75.58;100818.59;4785640;30;20130;-81
2021/10/17 05:04:38;;;;;;;6.68;0.90;;;;;;;9.52;75.97;100970.47;4785032;30;20069;-81
2021/10/17 05:07:05;;;;;;;4.13;0.68;;;;;;;9.49;76.25;100935.94;4801069;29;20517;-81
2021/10/17 05:09:31;;;;;;;5.70;0.98;;;;;;;8.39;76.76;100755.19;4801123;29;20046;-81
2021/10/17 05:11:57;;;;;;;6.47;0.65;;;;;;;8.31;77.61;100739.16;4814261;29;20034;-81
2021/10/17 05:14:23;;;;;;;3.13;0.60;;;;;;;8.79;77.49;100822.75;4828621;29;20015;-83
2021/10/17 05:16:49;;;;;;;6.47;0.63;;;;;;;9.40;77.22;100913.72;4829256;29;20027;-81
2021/10/17 05:19:16;;;;;;;3.38;0.70;;;;;;;8.38;76.81;100769.59;4803174;29;20187;-82
2021/10/17 05:21:41;;;;;;;2.78;0.50;;;;;;;8.82;75.32;100825.06;4800928;29;20023;-81
2021/10/17 05:24:07;;;;;;;3.50;0.43;;;;;;;9.37;75.72;100939.13;4784555;30;20094;-81
2021/10/17 05:26:33;;;;;;;2.58;0.47;;;;;;;9.26;75.46;100934.22;4789247;29;20036;-81
2021/10/17 05:28:59;;;;;;;3.33;0.65;;;;;;;8.36;76.23;100793.06;4770737;30;20019;-81
2021/10/17 05:31:24;;;;;;;3.10;0.50;;;;;;;8.19;75.28;100786.22;4778940;30;20119;-81
2021/10/17 05:33:50;;;;;;;2.15;0.60;;;;;;;8.49;75.33;100826.47;4789544;30;20046;-82
2021/10/17 05:36:16;;;;;;;5.00;0.60;;;;;;;8.51;74.24;100851.22;4805488;29;20053;-82
2021/10/17 05:38:41;;;;;;;3.75;1.00;;;;;;;9.35;74.25;100989.47;4794022;30;20035;-82
2021/10/17 05:41:07;;;;;;;3.50;0.63;;;;;;;8.73;75.05;100890.56;4813067;29;20057;-81
2021/10/17 05:43:34;;;;;;;2.65;0.60;;;;;;;8.54;75.61;100872.31;4801950;29;20035;-80
2021/10/17 05:46:00;;;;;;;4.85;0.77;;;;;;;8.54;76.50;100875.84;4790256;30;20035;-81
2021/10/17 05:48:25;;;;;;;4.18;0.50;;;;;;;8.32;76.54;100850.75;4808946;30;20031;-81
2021/10/17 05:50:50;;;;;;;2.75;0.82;;;;;;;7.86;75.27;100786.53;4777592;30;20056;-81
2021/10/17 05:53:16;;;;;;;2.97;0.47;;;;;;;8.68;74.52;100917.13;4767529;30;20039;-80
2021/10/17 05:55:48;;;;;;;5.00;0.77;;;;;;;8.69;75.19;100924.16;4783195;30;20036;-82
2021/10/17 05:58:14;;;;;;;4.13;0.50;;;;;;;8.96;75.26;100946.00;4768410;30;20031;-80
2021/10/17 06:00:39;;;;;;;2.95;0.50;;;;;;;7.93;75.63;100771.38;4787839;29;20058;-84
2021/10/17 06:03:07;;;;;;;4.18;0.82;;;;;;;8.20;76.42;100834.25;4802536;29;20028;-82
2021/10/17 06:05:33;;;;;;;3.88;0.45;;;;;;;7.82;76.25;100760.31;4790595;30;20031;-81
2021/10/17 06:08:00;;;;;;;2.63;0.40;;;;;;;9.44;76.06;101002.81;4801041;29;20162;-81
2021/10/17 06:10:26;;;;;;;3.85;0.50;;;;;;;8.05;75.75;100782.50;4800785;30;20034;-82
2021/10/17 06:12:51;;;;;;;3.25;0.60;;;;;;;7.95;77.14;100777.41;4810181;29;20061;-82
2021/10/17 06:15:17;;;;;;;2.92;0.57;;;;;;;9.37;77.86;100989.28;4796239;29;20039;-79
2021/10/17 06:17:42;;;;;;;2.92;0.60;;;;;;;9.39;78.29;100981.88;4765800;30;20035;-80
2021/10/17 06:20:08;;;;;;;3.13;0.65;;;;;;;9.20;78.59;100955.59;4759168;30;20107;-81
2021/10/17 06:22:33;;;;;;;6.57;0.70;;;;;;;9.47;78.29;101013.16;4788784;29;20027;-82
2021/10/17 06:24:59;;;;;;;3.28;0.50;;;;;;;9.47;78.36;100997.06;4782758;30;20059;-80
2021/10/17 06:27:24;;;;;;;3.60;0.70;;;;;;;9.68;78.26;101013.25;4779477;29;20089;-80
2021/10/17 06:29:51;;;;;;;4.20;0.50;;;;;;;9.71;77.63;101014.75;4762433;29;20490;-81
2021/10/17 06:32:17;;;;;;;5.05;0.60;;;;;;;9.52;77.39;100994.66;4786146;29;20031;-80
2021/10/17 06:34:43;;;;;;;4.57;0.90;;;;;;;9.74;77.69;101019.75;4778594;30;20035;-80
2021/10/17 06:37:08;;;;;;;3.30;0.45;;;;;;;9.66;77.41;101009.91;4774649;30;20114;-79
2021/10/17 06:39:34;;;;;;;3.78;0.40;;;;;;;9.72;77.42;101005.66;4779648;30;20019;-81
2021/10/17 06:42:00;;;;;;;4.05;0.55;;;;;;;9.87;75.93;101025.28;4781978;30;20378;-80
2021/10/17 06:44:25;;;;;;;5.00;0.50;;;;;;;9.84;76.83;101015.72;4763613;29;20031;-80
2021/10/17 06:46:52;;;;;;;6.38;0.80;;;;;;;9.70;76.53;100986.19;4792548;30;20046;-81
2021/10/17 06:49:17;;;;;;;2.83;0.60;;;;;;;9.94;76.52;101033.41;4799552;29;20030;-83
2021/10/17 06:51:44;;;;;;;2.05;0.52;;;;;;;9.81;77.50;101020.66;4798992;29;20039;-82
2021/10/17 06:54:09;;;;;;;5.15;0.70;;;;;;;9.89;77.93;101033.97;4794890;30;20035;-81
2021/10/17 06:56:34;;;;;;;4.60;0.52;;;;;;;9.87;77.73;101041.41;4797651;29;20039;-82
2021/10/17 06:59:00;;;;;;;2.00;0.70;;;;;;;9.76;77.88;101042.69;4771592;30;20500;-82
2021/10/17 07:01:25;;;;;;;4.60;0.60;;;;;;;9.46;77.20;100995.41;4767002;30;20035;-81
2021/10/17 07:03:51;;;;;;;3.20;0.60;;;;;;;9.68;76.62;101023.16;4780286;30;20059;-81
2021/10/17 07:06:16;;;;;;;2.10;0.50;;;;;;;9.80;77.14;101040.47;4755324;30;20038;-81
2021/10/17 07:08:41;;;;;;;4.53;0.55;;;;;;;9.91;78.12;101057.97;4785264;29;20416;-81
2021/10/17 07:11:07;;;;;;;4.45;0.60;;;;;;;9.87;77.86;101054.84;4776817;29;20035;-80
2021/10/17 07:13:32;;;;;;;4.18;0.60;;;;;;;9.56;76.78;100995.94;4807626;29;20046;-82
2021/10/17 07:15:58;;;;;;;2.10;0.63;;;;;;;9.97;74.71;101054.53;4823888;29;20055;-80
2021/10/17 07:18:23;;;;;;;4.50;0.40;;;;;;;10.11;74.71;101054.47;4787268;30;20135;-80
2021/10/17 07:20:50;;;;;;;2.35;0.57;;;;;;;10.12;73.56;101047.25;4774124;30;20043;-81
2021/10/17 07:23:15;;;;;;;2.15;0.50;;;;;;;9.89;74.71;101001.69;4810460;29;20038;-84
2021/10/17 07:25:41;;;;;;;2.47;0.52;;;;;;;10.22;74.70;101066.59;4800817;30;20043;-81
2021/10/17 07:28:06;;;;;;;3.45;0.60;;;;;;;10.08;76.04;101054.88;4783300;29;20035;-82
2021/10/17 07:30:33;;;;;;;1.83;0.65;;;;;;;10.08;75.65;101079.06;4787619;29;20043;-80
2021/10/17 07:32:58;;;;;;;2.13;0.45;;;;;;;9.95;76.30;101086.13;4770127;30;20031;-80
2021/10/17 07:35:24;;;;;;;4.93;0.80;;;;;;;9.91;76.61;101087.53;4788575;29;20038;-80
2021/10/17 07:37:49;;;;;;;2.60;0.63;;;;;;;9.46;77.12;101036.53;4780205;29;20035;-81
2021/10/17 07:40:15;;;;;;;4.95;0.70;;;;;;;9.70;78.09;101093.66;4752763;29;20451;-80
2021/10/17 07:42:40;;;;;;;3.40;0.75;;;;;;;9.45;78.88;101055.53;4771797;30;20079;-82
2021/10/17 07:45:06;;;;;;;2.70;0.82;;;;;;;9.55;77.83;101091.00;4751583;30;20039;-80
2021/10/17 07:47:33;;;;;;;2.72;0.88;;;;;;;9.49;78.94;101097.09;4786623;30;20031;-81
2021/10/17 07:49:58;;;;;;;5.22;0.70;;;;;;;9.63;77.95;101110.56;4774512;30;20055;-82
2021/10/17 07:52:24;;;;;;;3.42;0.60;;;;;;;9.49;77.91;101078.28;4798337;30;20128;-81
2021/10/17 07:54:49;;;;;;;3.47;0.77;;;;;;;9.71;77.32;101111.47;4764965;30;20039;-81
2021/10/17 07:57:15;;;;;;;3.63;0.70;;;;;;;9.81;76.85;101109.34;4769679;30;20031;-81
2021/10/17 07:59:40;;;;;;;2.15;0.60;;;;;;;9.79;75.73;101116.75;4769325;30;20095;-82
2021/10/17 08:02:06;;;;;;;3.05;0.50;;;;;;;9.62;74.04;101111.56;4781509;30;20047;-81
2021/10/17 08:04:31;;;;;;;2.45;0.90;;;;;;;9.31;72.53;101076.00;4787765;30;20050;-80
2021/10/17 08:06:57;;;;;;;3.80;0.77;;;;;;;9.41;70.93;101096.19;4802400;29;20035;-82
2021/10/17 08:09:24;;;;;;;1.85;0.50;;;;;;;9.53;67.85;101104.59;4786525;30;20488;-81
2021/10/17 08:11:50;;;;;;;1.75;0.47;;;;;;;9.65;67.74;101124.63;4756429;30;20051;-81
2021/10/17 08:14:15;;;;;;;1.55;0.50;;;;;;;9.72;67.87;101119.34;4772963;30;20039;-82
2021/10/17 08:16:40;;;;;;;3.55;0.57;;;;;;;9.29;68.71;101048.47;4774844;29;20047;-81
2021/10/17 08:19:06;;;;;;;2.45;0.50;;;;;;;9.64;67.07;101117.59;4802998;29;20038;-81
2021/10/17 08:21:32;;;;;;;2.17;0.40;;;;;;;9.67;66.38;101143.25;4800255;29;20034;-80
2021/10/17 08:23:58;;;;;;;1.48;0.47;;;;;;;9.59;65.18;101140.63;4782733;30;20067;-80
2021/10/17 08:26:23;;;;;;;1.42;0.47;;;;;;;9.44;65.45;101110.22;4782205;29;20027;-78
2021/10/17 08:28:51;;;;;;;2.65;0.50;;;;;;;9.56;64.70;101125.72;4786289;29;20347;-78
2021/10/17 08:31:16;;;;;;;1.40;0.47;;;;;;;9.56;63.12;101139.16;4782264;30;20027;-81
2021/10/17 08:33:42;;;;;;;3.38;0.47;;;;;;;9.51;61.31;101124.63;4788693;29;20478;-82
2021/10/17 08:36:09;;;;;;;2.80;0.40;;;;;;;9.75;61.52;101143.16;4806876;29;20098;-81
2021/10/17 08:38:34;;;;;;;1.70;0.50;;;;;;;9.56;60.46;101136.47;4820628;29;20053;-82
2021/10/17 08:41:00;;;;;;;2.65;0.50;;;;;;;9.64;60.02;101149.00;4814236;29;20055;-81
2021/10/17 08:43:27;;;;;;;1.85;0.40;;;;;;;9.50;59.40;101144.44;4807690;29;20063;-81
2021/10/17 08:45:52;;;;;;;2.72;0.95;;;;;;;9.44;59.50;101116.47;4785037;29;20066;-82
2021/10/17 08:48:19;;;;;;;2.97;0.30;;;;;;;9.61;60.19;101149.38;4812505;29;20026;-81
2021/10/17 08:50:45;;;;;;;2.90;0.68;;;;;;;9.65;61.00;101156.03;4784927;29;20072;-81
2021/10/17 08:53:10;;;;;;;2.08;0.45;;;;;;;9.78;60.76;101160.75;4806256;29;20099;-82
2021/10/17 08:55:36;;;;;;;2.33;0.30;;;;;;;9.74;60.00;101154.09;4796066;30;20031;-82
2021/10/17 08:58:02;;;;;;;1.20;0.57;;;;;;;9.79;60.27;101168.63;4804791;30;20059;-82
2021/10/17 09:00:35;;;;;;;2.80;0.70;;;;;;;9.75;59.75;101172.72;4800134;30;20463;-82
2021/10/17 09:03:01;;;;;;;1.35;0.43;;;;;;;9.75;59.92;101172.72;4787153;29;20039;-81
2021/10/17 09:05:34;;;;;;;1.48;0.47;;;;;;;9.84;60.70;101168.09;4787401;30;20039;-81
2021/10/17 09:08:00;;;;;;;2.83;0.70;;;;;;;9.83;59.61;101169.09;4803999;29;20027;-81
2021/10/17 09:10:26;;;;;;;3.70;0.50;;;;;;;9.73;60.17;101153.25;4800248;29;20291;-82
2021/10/17 09:12:51;;;;;;;3.35;0.50;;;;;;;9.87;60.61;101167.72;4771262;30;20079;-82
2021/10/17 09:15:24;;;;;;;2.13;0.60;;;;;;;9.82;60.52;101173.63;4771670;30;20074;-81
2021/10/17 09:18:09;;;;;;;1.60;0.43;;;;;;;9.89;61.40;101179.94;4786912;29;20039;-81
2021/10/17 09:20:46;;;;;;;1.05;0.57;;;;;;;9.97;61.35;101184.41;4788718;30;20065;-82
2021/10/17 09:23:13;;;;;;;2.45;0.50;;;;;;;9.82;61.72;101165.56;4802609;29;20031;-81
2021/10/17 09:25:38;;;;;;;2.70;0.50;;;;;;;9.97;60.72;101186.25;4779243;30;20447;-82
2021/10/17 09:28:18;;;;;;;1.17;0.40;;;;;;;9.92;60.03;101183.28;4788822;30;20045;-82
2021/10/17 09:31:16;;;;;;;0.88;0.30;;;;;;;9.91;60.30;101185.13;4787227;29;20035;-81
2021/10/17 09:33:56;;;;;;;2.05;0.35;;;;;;;9.84;56.32;101181.53;4800787;29;20111;-82
2021/10/17 09:36:30;;;;;;;0.85;0.40;;;;;;;9.95;57.62;101182.91;4802839;30;20035;-82
2021/10/17 09:39:23;;;;;;;1.30;0.40;;;;;;;9.93;57.45;101179.56;4788107;30;20193;-82
2021/10/17 09:41:51;;;;;;;1.35;0.28;;;;;;;9.97;56.88;101191.63;4801039;30;20053;-81
2021/10/17 09:44:17;;;;;;;1.48;0.30;;;;;;;9.91;57.22;101173.56;4786949;30;20043;-82
2021/10/17 09:46:56;;;;;;;1.15;0.30;;;;;;;10.07;55.73;101197.56;4786919;30;20431;-81
2021/10/17 09:49:22;;;;;;;0.57;0.20;;;;;;;9.88;55.41;101167.53;4786301;30;20040;-82
2021/10/17 09:51:48;;;;;;;0.55;0.30;;;;;;;10.07;55.09;101194.88;4795760;29;20035;-81
2021/10/17 09:54:13;;;;;;;1.55;0.30;;;;;;;10.04;54.79;101195.25;4806431;29;20039;-82
2021/10/17 09:56:43;;;;;;;0.55;0.25;;;;;;;10.11;54.43;101198.84;4795470;29;20105;-82
2021/10/17 09:59:11;;;;;;;1.42;0.40;;;;;;;10.09;53.78;101203.56;4787712;30;20110;-82
2021/10/17 10:01:38;;;;;;;0.68;0.30;;;;;;;10.21;53.20;101199.41;4786952;30;20027;-81
2021/10/17 10:04:06;;;;;;;1.40;0.32;;;;;;;10.11;53.41;101199.69;4787921;30;20038;-81
2021/10/17 10:06:33;;;;;;;0.85;0.32;;;;;;;10.19;53.89;101196.06;4802617;30;20035;-81
2021/10/17 10:09:04;;;;;;;2.47;0.30;;;;;;;10.08;53.64;101205.44;4773764;30;20036;-81
2021/10/17 10:11:31;;;;;;;2.28;0.30;;;;;;;9.95;54.36;101178.38;4787802;30;20035;-82
2021/10/17 10:14:03;;;;;;;2.92;0.22;;;;;;;10.23;54.96;101204.59;4788316;30;20491;-82
2021/10/17 10:16:29;;;;;;;1.10;0.50;;;;;;;10.28;54.83;101205.72;4786517;30;20146;-84
2021/10/17 10:19:06;;;;;;;1.42;0.30;;;;;;;10.31;54.69;101213.44;4803277;29;20035;-82
2021/10/17 10:21:32;;;;;;;1.42;0.52;;;;;;;10.30;55.25;101209.06;4794026;29;20024;-81
2021/10/17 10:24:01;;;;;;;1.15;0.40;;;;;;;9.84;55.09;101133.16;4779243;30;20051;-81
2021/10/17 10:26:30;;;;;;;0.75;0.30;;;;;;;10.18;55.02;101194.41;4782495;30;20039;-81
2021/10/17 10:29:07;;;;;;;1.08;0.45;;;;;;;10.25;54.18;101219.50;4773410;30;20042;-81
2021/10/17 10:31:51;;;;;;;1.38;0.35;;;;;;;10.26;54.20;101221.22;4758080;29;20051;-81
2021/10/17 10:34:22;;;;;;;1.85;0.38;;;;;;;10.30;55.29;101211.75;4791864;29;20105;-81
2021/10/17 10:36:52;;;;;;;2.45;0.30;;;;;;;10.37;54.82;101217.22;4787754;30;20031;-82
2021/10/17 10:39:21;;;;;;;3.65;0.80;;;;;;;10.34;54.67;101214.91;4801113;29;20449;-81
2021/10/17 10:42:02;;;;;;;1.17;0.30;;;;;;;10.38;54.46;101212.69;4789127;29;20136;-82
2021/10/17 10:44:40;;;;;;;2.28;0.70;;;;;;;10.28;53.03;101205.72;4800792;29;20030;-81
2021/10/17 10:47:25;;;;;;;1.77;0.47;;;;;;;10.34;54.19;101212.22;4784283;30;20024;-81
2021/10/17 10:49:54;;;;;;;1.45;0.40;;;;;;;10.38;53.61;101218.06;4784584;30;20019;-80
2021/10/17 10:52:28;;;;;;;1.55;0.40;;;;;;;10.37;54.17;101219.09;4788960;29;20055;-80
2021/10/17 10:55:00;;;;;;;1.17;0.40;;;;;;;10.31;53.58;101215.28;4778118;30;20034;-79
2021/10/17 10:57:29;;;;;;;1.67;0.38;;;;;;;10.29;54.65;101223.53;4791599;29;20080;-80
2021/10/17 11:00:07;;;;;;;1.50;0.70;;;;;;;10.15;54.71;101193.94;4755140;30;20043;-80
2021/10/17 11:02:34;;;;;;;1.52;0.60;;;;;;;10.27;55.01;101230.97;4797035;29;20039;-80
2021/10/17 11:05:03;;;;;;;0.70;0.40;;;;;;;10.30;54.58;101227.06;4764130;30;20111;-80
2021/10/17 11:07:29;;;;;;;0.82;0.50;;;;;;;10.20;55.52;101230.00;4778987;30;20031;-81
2021/10/17 11:10:16;;;;;;;1.42;0.40;;;;;;;9.92;54.04;101200.25;4791755;29;20039;-80
2021/10/17 11:12:42;;;;;;;0.80;0.32;;;;;;;10.18;54.54;101236.59;4747452;30;20039;-79
2021/10/17 11:15:10;;;;;;;3.67;0.40;;;;;;;10.30;54.30;101241.34;4759934;30;20038;-80
2021/10/17 11:17:36;;;;;;;1.38;0.82;;;;;;;10.27;54.91;101216.69;4751188;30;20046;-80
2021/10/17 11:20:04;;;;;;;3.33;0.90;;;;;;;10.34;54.56;101229.19;4780698;29;20043;-80
2021/10/17 11:22:36;;;;;;;1.45;0.40;;;;;;;9.74;54.17;101137.97;4757024;30;20122;-80
2021/10/17 11:25:03;;;;;;;0.98;0.40;;;;;;;10.40;53.81;101235.69;4762569;29;20043;-80
2021/10/17 11:27:49;;;;;;;2.22;0.50;;;;;;;10.42;54.06;101239.00;4797376;29;20039;-81
2021/10/17 11:30:33;;;;;;;1.30;0.40;;;;;;;10.39;54.21;101233.16;4780479;30;20055;-80
2021/10/17 11:33:00;;;;;;;2.88;0.50;;;;;;;10.23;54.14;101216.19;4781512;29;20043;-83